Time;durP1;ratioP1;P1;durP2;ratioP2;P2;SDS_P1;SDS_P2;PMS_P1;PMS_P2;Temp;Humidity;BMP_temperature;BMP_pressure;BME280_temperature;BME280_humidity;BME280_pressure;Samples;Min_cycle;Max_cycle;Signal;HPM_P1;HPM_P2
2023/11/18 00:01:04;;;;;;;2.30;1.60;;;;;5.60;96926.00;;;;5062689;28;20704;-66
2023/11/18 00:03:55;;;;;;;3.87;2.80;;;;;5.70;96939.00;;;;5062105;28;20211;-66
2023/11/18 00:06:44;;;;;;;1.97;1.33;;;;;5.70;96943.00;;;;5058840;28;20238;-66
2023/11/18 00:09:35;;;;;;;2.53;1.70;;;;;5.40;96933.00;;;;5062939;28;20227;-65
2023/11/18 00:12:25;;;;;;;2.23;1.67;;;;;5.10;96935.00;;;;5055103;28;20211;-66
2023/11/18 00:15:13;;;;;;;2.73;1.77;;;;;5.00;96940.00;;;;5053378;28;20211;-67
2023/11/18 00:18:03;;;;;;;4.67;2.80;;;;;5.00;96930.00;;;;5062861;28;20330;-66
2023/11/18 00:20:52;;;;;;;5.97;3.67;;;;;4.90;96936.00;;;;5060021;28;20196;-67
2023/11/18 00:23:41;;;;;;;2.27;1.50;;;;;5.10;96947.00;;;;5063773;28;20685;-66
2023/11/18 00:26:31;;;;;;;2.13;1.53;;;;;5.20;96946.00;;;;5064764;28;20585;-66
2023/11/18 00:29:20;;;;;;;3.17;1.93;;;;;5.30;96944.00;;;;5051885;28;20572;-67
2023/11/18 00:32:09;;;;;;;1.97;1.47;;;;;5.40;96950.00;;;;5059852;28;20208;-66
2023/11/18 00:34:58;;;;;;;3.90;2.70;;;;;5.30;96949.00;;;;5061897;28;20222;-67
2023/11/18 00:37:47;;;;;;;4.73;2.87;;;;;5.30;96958.00;;;;5055915;28;20228;-66
2023/11/18 00:40:36;;;;;;;3.00;1.90;;;;;5.20;96945.00;;;;5065905;28;20196;-66
2023/11/18 00:43:27;;;;;;;2.30;1.70;;;;;5.20;96956.00;;;;5059556;28;20208;-66
2023/11/18 00:46:17;;;;;;;3.63;2.27;;;;;5.00;96947.00;;;;5059193;28;20631;-66
2023/11/18 00:49:06;;;;;;;2.87;1.97;;;;;5.00;96944.00;;;;5061585;28;20200;-66
2023/11/18 00:51:55;;;;;;;4.57;3.00;;;;;5.00;96938.00;;;;5057777;28;20197;-66
2023/11/18 00:54:44;;;;;;;2.70;1.77;;;;;5.40;96941.00;;;;5069995;28;20196;-66
2023/11/18 00:57:33;;;;;;;2.57;1.73;;;;;5.50;96949.00;;;;5059897;28;20224;-66
2023/11/18 01:00:26;;;;;;;1.70;1.17;;;;;5.20;96952.00;;;;5065291;28;20196;-66
2023/11/18 01:03:15;;;;;;;2.50;1.70;;;;;4.80;96935.00;;;;5057564;28;20678;-66
2023/11/18 01:06:04;;;;;;;3.10;2.10;;;;;4.70;96936.00;;;;5058053;28;20235;-67
2023/11/18 01:08:54;;;;;;;4.60;3.00;;;;;4.90;96951.00;;;;5063633;28;20215;-66
2023/11/18 01:11:43;;;;;;;2.90;1.93;;;;;4.60;96938.00;;;;5056056;28;20723;-66
2023/11/18 01:14:32;;;;;;;2.63;1.83;;;;;4.90;96939.00;;;;5068747;28;20211;-66
2023/11/18 01:17:23;;;;;;;2.57;1.73;;;;;5.00;96944.00;;;;5066409;28;20231;-66
2023/11/18 01:20:13;;;;;;;2.27;1.50;;;;;4.90;96952.00;;;;5059022;28;20430;-66
2023/11/18 01:23:02;;;;;;;4.07;2.60;;;;;5.20;96958.00;;;;5059882;28;20212;-66
2023/11/18 01:25:51;;;;;;;6.63;4.00;;;;;5.50;96969.00;;;;5063073;28;20200;-65
2023/11/18 01:28:43;;;;;;;3.27;2.10;;;;;4.90;96964.00;;;;5051724;28;20197;-67
2023/11/18 01:31:32;;;;;;;1.93;1.33;;;;;5.30;96960.00;;;;5066599;28;20220;-66
2023/11/18 01:34:26;;;;;;;2.40;1.63;;;;;5.50;96973.00;;;;5065850;28;20240;-66
2023/11/18 01:37:15;;;;;;;3.20;1.90;;;;;5.60;96979.00;;;;5054228;28;20615;-67
2023/11/18 01:40:06;;;;;;;2.17;1.50;;;;;5.60;96974.00;;;;5064025;28;20736;-66
2023/11/18 01:42:55;;;;;;;4.73;3.10;;;;;5.40;96980.00;;;;5067539;28;20207;-66
2023/11/18 01:45:44;;;;;;;4.07;2.33;;;;;5.70;96978.00;;;;5053449;28;20211;-66
2023/11/18 01:48:34;;;;;;;2.23;1.40;;;;;5.50;96987.00;;;;5064040;28;20251;-66
2023/11/18 01:51:24;;;;;;;2.80;1.90;;;;;5.70;96991.00;;;;5055313;28;20224;-66
2023/11/18 01:54:19;;;;;;;3.10;1.83;;;;;5.70;97002.00;;;;5060453;28;20223;-66
2023/11/18 01:57:09;;;;;;;2.70;1.70;;;;;5.80;97006.00;;;;5055820;28;20224;-67
2023/11/18 01:59:58;;;;;;;4.73;2.90;;;;;5.40;97000.00;;;;5062115;28;20219;-66
2023/11/18 02:02:47;;;;;;;4.03;2.33;;;;;5.70;97002.00;;;;5060913;28;20199;-66
2023/11/18 02:05:38;;;;;;;2.37;1.50;;;;;5.60;97006.00;;;;5058527;28;20219;-66
2023/11/18 02:08:29;;;;;;;3.27;1.93;;;;;5.30;96990.00;;;;5059037;28;20719;-66
2023/11/18 02:11:24;;;;;;;3.40;2.30;;;;;4.90;97000.00;;;;5056370;28;20241;-66
2023/11/18 02:14:17;;;;;;;2.77;1.73;;;;;5.40;96999.00;;;;5061946;28;20211;-66
2023/11/18 02:17:09;;;;;;;3.20;2.00;;;;;5.20;97004.00;;;;5057774;28;20227;-67
2023/11/18 02:19:59;;;;;;;4.40;2.73;;;;;5.40;97013.00;;;;5056104;28;20208;-67
2023/11/18 02:22:48;;;;;;;4.33;2.57;;;;;6.00;97019.00;;;;5065497;28;20226;-67
2023/11/18 02:25:45;;;;;;;3.10;1.83;;;;;5.50;97028.00;;;;5061301;28;20677;-66
2023/11/18 02:28:34;;;;;;;1.70;1.20;;;;;5.60;97032.00;;;;5056681;28;20235;-67
2023/11/18 02:31:27;;;;;;;2.13;1.27;;;;;5.80;97024.00;;;;5053950;28;20221;-68
2023/11/18 02:34:23;;;;;;;2.50;1.67;;;;;6.10;97023.00;;;;5055574;28;20208;-68
2023/11/18 02:37:13;;;;;;;2.97;1.90;;;;;6.20;97028.00;;;;5052288;28;20705;-68
2023/11/18 02:40:08;;;;;;;4.63;2.97;;;;;6.10;97030.00;;;;5056994;28;20214;-68
2023/11/18 02:43:00;;;;;;;4.93;3.00;;;;;6.20;97026.00;;;;5064604;28;20818;-68
2023/11/18 02:45:49;;;;;;;6.83;3.70;;;;;6.30;97033.00;;;;5058279;28;20589;-68
2023/11/18 02:48:41;;;;;;;3.13;1.80;;;;;5.90;97030.00;;;;5060354;28;20212;-67
2023/11/18 02:51:31;;;;;;;2.77;1.73;;;;;6.00;97031.00;;;;5053825;28;20224;-66
2023/11/18 02:54:20;;;;;;;3.23;2.00;;;;;5.70;97033.00;;;;5061861;28;20613;-67
2023/11/18 02:57:09;;;;;;;2.90;1.80;;;;;5.90;97042.00;;;;5063257;28;20235;-67
2023/11/18 03:00:00;;;;;;;4.67;2.90;;;;;5.60;97041.00;;;;5053638;28;20215;-67
2023/11/18 03:02:51;;;;;;;3.13;1.93;;;;;5.40;97038.00;;;;5059380;28;20587;-68
2023/11/18 03:05:40;;;;;;;3.53;2.13;;;;;5.80;97043.00;;;;5059856;28;20208;-67
2023/11/18 03:08:29;;;;;;;3.03;1.80;;;;;5.90;97055.00;;;;5055209;28;20227;-66
2023/11/18 03:11:19;;;;;;;2.60;1.70;;;;;6.30;97059.00;;;;5056386;28;20728;-66
2023/11/18 03:14:09;;;;;;;1.77;1.20;;;;;6.10;97061.00;;;;5057528;28;20200;-66
2023/11/18 03:16:59;;;;;;;5.27;3.10;;;;;6.30;97059.00;;;;5054740;28;20663;-65
2023/11/18 03:19:50;;;;;;;5.87;3.30;;;;;6.40;97070.00;;;;5064104;28;20222;-67
2023/11/18 03:22:39;;;;;;;2.13;1.43;;;;;6.60;97071.00;;;;5065386;28;20204;-66
2023/11/18 03:25:28;;;;;;;1.93;1.30;;;;;6.80;97071.00;;;;5056054;28;20209;-67
2023/11/18 03:28:17;;;;;;;2.17;1.40;;;;;6.30;97065.00;;;;5057936;28;20231;-67
2023/11/18 03:31:06;;;;;;;2.57;1.60;;;;;6.20;97065.00;;;;5051913;28;20209;-66
2023/11/18 03:33:57;;;;;;;5.13;3.07;;;;;5.70;97060.00;;;;5051728;28;20215;-66
2023/11/18 03:36:46;;;;;;;2.97;1.80;;;;;6.00;97064.00;;;;5066353;28;20223;-65
2023/11/18 03:39:35;;;;;;;2.63;1.70;;;;;6.30;97058.00;;;;5052508;28;20211;-66
2023/11/18 03:42:24;;;;;;;2.97;1.90;;;;;6.40;97070.00;;;;5057138;28;20200;-67
2023/11/18 03:45:15;;;;;;;3.00;1.80;;;;;6.00;97074.00;;;;5049408;28;20201;-66
2023/11/18 03:48:04;;;;;;;6.00;3.70;;;;;6.20;97075.00;;;;5055719;28;20815;-66
2023/11/18 03:50:54;;;;;;;6.93;4.10;;;;;5.90;97072.00;;;;5053564;28;20207;-66
2023/11/18 03:53:43;;;;;;;2.80;1.80;;;;;6.30;97075.00;;;;5058874;28;20201;-66
2023/11/18 03:56:32;;;;;;;2.87;1.77;;;;;6.50;97072.00;;;;5058178;28;20586;-67
2023/11/18 03:59:21;;;;;;;3.20;1.87;;;;;6.10;97071.00;;;;5062112;28;20204;-66
2023/11/18 04:02:11;;;;;;;2.70;1.80;;;;;6.50;97073.00;;;;5058531;28;20207;-66
2023/11/18 04:05:00;;;;;;;5.13;3.00;;;;;6.60;97065.00;;;;5055466;28;20709;-65
2023/11/18 04:07:50;;;;;;;4.77;2.37;;;;;6.60;97067.00;;;;5081047;22;20323;-88
2023/11/18 04:10:39;;;;;;;3.70;1.90;;;;;6.60;97080.00;;;;5038231;28;20228;-87
2023/11/18 04:13:28;;;;;;;3.60;1.80;;;;;6.40;97073.00;;;;5045035;28;20233;-88
2023/11/18 04:16:18;;;;;;;4.47;2.03;;;;;6.30;97068.00;;;;5044504;28;20227;-88
2023/11/18 04:19:07;;;;;;;4.27;2.00;;;;;5.60;97062.00;;;;5049527;28;20242;-89
2023/11/18 04:21:57;;;;;;;8.47;3.77;;;;;6.10;97069.00;;;;5070798;22;20231;-70
2023/11/18 04:24:47;;;;;;;4.57;2.13;;;;;5.40;97056.00;;;;5057783;28;20204;-69
2023/11/18 04:27:36;;;;;;;1.87;0.97;;;;;6.30;97075.00;;;;5059764;28;20228;-69
2023/11/18 04:30:26;;;;;;;4.47;2.00;;;;;6.00;97057.00;;;;5036762;28;20216;-69
2023/11/18 04:33:15;;;;;;;3.97;1.90;;;;;6.20;97059.00;;;;5047367;28;20232;-69
2023/11/18 04:36:05;;;;;;;9.23;3.93;;;;;6.30;97075.00;;;;5038529;28;20224;-69
2023/11/18 04:38:54;;;;;;;10.27;4.33;;;;;6.30;97065.00;;;;5036050;28;20598;-69
2023/11/18 04:41:45;;;;;;;4.60;2.10;;;;;5.80;97057.00;;;;5033101;28;20205;-69
2023/11/18 04:44:34;;;;;;;4.53;2.10;;;;;5.70;97064.00;;;;5043987;28;20608;-69
2023/11/18 04:47:24;;;;;;;4.50;2.07;;;;;6.10;97066.00;;;;5040569;28;20615;-69
2023/11/18 04:50:14;;;;;;;4.37;2.00;;;;;6.00;97077.00;;;;5040932;28;20271;-71
2023/11/18 04:53:04;;;;;;;6.50;3.03;;;;;5.70;97084.00;;;;5039823;28;20228;-70
2023/11/18 04:55:53;;;;;;;10.33;4.50;;;;;5.80;97082.00;;;;5048706;28;20236;-70
2023/11/18 04:58:46;;;;;;;1.63;0.83;;;;;5.90;97087.00;;;;5044150;28;20232;-70
2023/11/18 05:01:36;;;;;;;4.63;2.10;;;;;6.10;97082.00;;;;5039770;28;20205;-70
2023/11/18 05:04:25;;;;;;;3.93;1.97;;;;;6.10;97085.00;;;;5036811;28;20247;-70
2023/11/18 05:07:14;;;;;;;4.30;1.90;;;;;5.60;97068.00;;;;5039021;28;20697;-70
2023/11/18 05:10:04;;;;;;;7.57;3.47;;;;;6.00;97087.00;;;;5038107;28;20582;-70
2023/11/18 05:12:55;;;;;;;6.07;2.63;;;;;6.20;97087.00;;;;5047742;28;20228;-70
2023/11/18 05:15:46;;;;;;;20.30;8.10;;;;;6.00;97083.00;;;;5041847;28;20707;-70
2023/11/18 05:18:36;;;;;;;4.37;2.03;;;;;6.10;97080.00;;;;5032458;28;20225;-70
2023/11/18 05:21:25;;;;;;;4.90;2.13;;;;;6.20;97084.00;;;;5050342;28;20215;-70
2023/11/18 05:24:14;;;;;;;5.07;2.17;;;;;6.10;97081.00;;;;5050209;28;20205;-70
2023/11/18 05:27:04;;;;;;;8.00;3.60;;;;;5.90;97086.00;;;;5056637;28;20204;-70
2023/11/18 05:29:55;;;;;;;12.37;5.30;;;;;5.40;97076.00;;;;5055829;28;20204;-70
2023/11/18 05:32:45;;;;;;;4.63;2.10;;;;;5.60;97087.00;;;;5069064;28;20230;-70
2023/11/18 05:35:34;;;;;;;5.00;2.20;;;;;5.70;97092.00;;;;5055897;28;20247;-70
2023/11/18 05:38:26;;;;;;;3.97;1.97;;;;;5.50;97092.00;;;;5053380;28;20221;-70
2023/11/18 05:41:23;;;;;;;5.17;2.37;;;;;5.00;97090.00;;;;5064883;28;20301;-69
2023/11/18 05:44:17;;;;;;;5.13;2.20;;;;;5.70;97100.00;;;;5061412;28;20211;-70
2023/11/18 05:47:06;;;;;;;7.93;3.63;;;;;5.10;97089.00;;;;5063043;28;20269;-68
2023/11/18 05:49:57;;;;;;;7.53;3.30;;;;;5.80;97101.00;;;;5067230;28;20204;-70
2023/11/18 05:52:46;;;;;;;5.23;2.37;;;;;6.10;97116.00;;;;5058435;28;20223;-70
2023/11/18 05:55:35;;;;;;;4.40;2.00;;;;;6.00;97116.00;;;;5064152;28;20204;-69
2023/11/18 05:58:24;;;;;;;4.37;1.93;;;;;5.90;97114.00;;;;5066400;28;20224;-69
2023/11/18 06:01:14;;;;;;;5.17;2.20;;;;;6.00;97127.00;;;;5062428;28;20576;-69
2023/11/18 06:04:03;;;;;;;9.57;4.20;;;;;4.40;97109.00;;;;5062411;28;20223;-69
2023/11/18 06:06:53;;;;;;;9.30;4.00;;;;;4.40;97116.00;;;;5061084;28;20211;-70
2023/11/18 06:09:43;;;;;;;9.50;3.87;;;;;4.50;97115.00;;;;5064742;28;20204;-69
2023/11/18 06:12:32;;;;;;;4.00;1.83;;;;;5.10;97121.00;;;;5067008;28;20238;-70
2023/11/18 06:15:22;;;;;;;5.40;2.30;;;;;5.80;97142.00;;;;5065093;28;20211;-71
2023/11/18 06:18:11;;;;;;;6.07;2.70;;;;;5.90;97146.00;;;;5064724;28;20238;-71
2023/11/18 06:21:00;;;;;;;10.40;4.43;;;;;6.10;97163.00;;;;5062542;28;20306;-70
2023/11/18 06:23:50;;;;;;;4.47;1.93;;;;;5.80;97155.00;;;;5062028;28;20211;-70
2023/11/18 06:26:39;;;;;;;5.83;2.53;;;;;5.80;97171.00;;;;5066168;28;20207;-71
2023/11/18 06:29:29;;;;;;;5.47;2.33;;;;;6.00;97169.00;;;;5057176;28;20219;-71
2023/11/18 06:32:18;;;;;;;7.07;2.90;;;;;5.40;97151.00;;;;5062566;28;20709;-70
2023/11/18 06:35:08;;;;;;;9.33;4.33;;;;;4.00;97124.00;;;;5062980;28;20204;-69
2023/11/18 06:37:58;;;;;;;13.20;5.47;;;;;5.80;97150.00;;;;5064886;28;20261;-70
2023/11/18 06:40:51;;;;;;;6.37;2.83;;;;;6.40;97169.00;;;;5064339;28;20258;-70
2023/11/18 06:43:51;;;;;;;4.90;2.30;;;;;6.40;97177.00;;;;5062633;28;20311;-70
2023/11/18 06:46:40;;;;;;;7.80;3.20;;;;;6.20;97177.00;;;;5059728;28;20227;-70
2023/11/18 06:49:29;;;;;;;5.77;2.50;;;;;6.30;97181.00;;;;5061775;28;20200;-70
2023/11/18 06:52:18;;;;;;;4.20;1.90;;;;;6.30;97188.00;;;;5062800;28;20199;-70
2023/11/18 06:55:08;;;;;;;7.73;3.63;;;;;6.80;97189.00;;;;5064897;28;20199;-71
2023/11/18 06:57:59;;;;;;;14.80;6.03;;;;;7.40;97193.00;;;;5053732;28;20219;-71
2023/11/18 07:00:48;;;;;;;7.80;3.23;;;;;6.00;97203.00;;;;5055526;28;20246;-70
2023/11/18 07:03:37;;;;;;;4.30;1.93;;;;;7.30;97208.00;;;;5062236;28;20196;-71
2023/11/18 07:06:27;;;;;;;6.77;2.83;;;;;7.70;97214.00;;;;5057782;28;20597;-70
2023/11/18 07:09:20;;;;;;;5.00;2.30;;;;;8.10;97207.00;;;;5059096;28;20224;-71
2023/11/18 07:12:09;;;;;;;6.07;2.50;;;;;8.20;97231.00;;;;5059052;28;20205;-71
2023/11/18 07:15:00;;;;;;;11.63;4.63;;;;;8.50;97224.00;;;;5064501;28;20696;-71
2023/11/18 07:17:51;;;;;;;4.87;2.10;;;;;8.60;97234.00;;;;5059949;28;20224;-70
2023/11/18 07:20:41;;;;;;;6.00;2.53;;;;;8.30;97239.00;;;;5058632;28;20211;-71
2023/11/18 07:23:32;;;;;;;5.63;2.40;;;;;8.40;97247.00;;;;5057175;28;20196;-69
2023/11/18 07:26:20;;;;;;;6.97;2.87;;;;;9.10;97234.00;;;;5060815;28;20200;-71
2023/11/18 07:29:10;;;;;;;7.10;2.87;;;;;8.80;97243.00;;;;5058974;28;20224;-69
2023/11/18 07:32:01;;;;;;;11.30;4.63;;;;;9.30;97226.00;;;;5056564;28;20227;-71
2023/11/18 07:34:50;;;;;;;5.57;2.43;;;;;9.10;97246.00;;;;5060307;28;20247;-69
2023/11/18 07:37:39;;;;;;;4.63;2.03;;;;;9.20;97260.00;;;;5060671;28;20681;-70
2023/11/18 07:40:29;;;;;;;4.20;1.93;;;;;9.20;97240.00;;;;5062433;28;20212;-71
2023/11/18 07:43:18;;;;;;;4.83;2.10;;;;;9.90;97244.00;;;;5064808;28;20197;-70
2023/11/18 07:46:07;;;;;;;7.20;3.27;;;;;10.10;97236.00;;;;5060835;28;20701;-71
2023/11/18 07:48:58;;;;;;;9.37;3.77;;;;;10.10;97235.00;;;;5064412;28;20212;-71
2023/11/18 07:51:47;;;;;;;5.67;2.47;;;;;10.30;97247.00;;;;5062545;28;20207;-69
2023/11/18 07:54:37;;;;;;;5.43;2.20;;;;;10.40;97230.00;;;;5062118;28;20637;-70
2023/11/18 07:57:27;;;;;;;6.60;2.83;;;;;10.70;97236.00;;;;5060460;28;20223;-69
2023/11/18 08:00:16;;;;;;;6.63;2.67;;;;;9.60;97225.00;;;;5059466;28;20200;-70
2023/11/18 08:03:07;;;;;;;8.77;3.90;;;;;10.10;97231.00;;;;5060004;28;20215;-70
2023/11/18 08:05:57;;;;;;;11.30;4.50;;;;;10.60;97215.00;;;;5055316;28;20290;-70
2023/11/18 08:08:47;;;;;;;5.43;2.40;;;;;10.40;97232.00;;;;5057813;28;20226;-70
2023/11/18 08:11:36;;;;;;;3.97;1.80;;;;;9.90;97218.00;;;;5064087;28;20191;-70
2023/11/18 08:14:26;;;;;;;5.27;2.20;;;;;10.20;97239.00;;;;5060547;28;20212;-70
2023/11/18 08:17:15;;;;;;;6.33;2.63;;;;;10.10;97238.00;;;;5064145;28;20196;-70
2023/11/18 08:20:13;;;;;;;9.80;4.03;;;;;10.40;97241.00;;;;5058504;28;20203;-69
2023/11/18 08:23:04;;;;;;;6.07;2.53;;;;;10.80;97231.00;;;;5042465;28;20550;-70
2023/11/18 08:25:53;;;;;;;9.23;3.77;;;;;10.50;97227.00;;;;5039679;28;20193;-69
2023/11/18 08:28:42;;;;;;;5.37;2.20;;;;;10.60;97224.00;;;;5041298;28;20217;-69
2023/11/18 08:31:32;;;;;;;10.33;4.07;;;;;10.80;97227.00;;;;5038429;28;20205;-70
2023/11/18 08:34:21;;;;;;;6.53;2.73;;;;;11.50;97244.00;;;;5039924;28;20321;-70
2023/11/18 08:37:10;;;;;;;9.33;3.53;;;;;11.60;97238.00;;;;5034155;28;20783;-70
2023/11/18 08:40:01;;;;;;;15.17;5.87;;;;;10.50;97231.00;;;;5030940;28;20204;-68
2023/11/18 08:42:51;;;;;;;11.47;4.47;;;;;11.50;97241.00;;;;5032638;28;20217;-70
2023/11/18 08:45:41;;;;;;;9.63;3.70;;;;;11.70;97257.00;;;;5035637;28;20681;-70
2023/11/18 08:48:31;;;;;;;7.43;2.83;;;;;11.60;97254.00;;;;5040017;28;20228;-70
2023/11/18 08:51:20;;;;;;;5.50;2.20;;;;;11.60;97240.00;;;;5040001;28;20223;-69
2023/11/18 08:54:22;;;;;;;8.53;3.60;;;;;11.30;97238.00;;;;5034232;28;20225;-70
2023/11/18 08:57:23;;;;;;;4.97;2.13;;;;;11.80;97241.00;;;;5036141;28;20360;-70
2023/11/18 09:00:42;;;;;;;4.90;1.93;;;;;11.50;97240.00;;;;5037990;28;20207;-70
2023/11/18 09:03:35;;;;;;;5.47;2.30;;;;;11.60;97246.00;;;;5042269;28;20200;-70
2023/11/18 09:06:27;;;;;;;6.00;2.37;;;;;11.50;97255.00;;;;5048201;28;20208;-70
2023/11/18 09:09:16;;;;;;;6.33;2.53;;;;;11.30;97260.00;;;;5045527;28;20581;-70
2023/11/18 09:12:08;;;;;;;9.17;3.77;;;;;11.10;97267.00;;;;5042711;28;20599;-70
2023/11/18 09:14:58;;;;;;;9.50;3.90;;;;;11.30;97264.00;;;;5047046;28;20705;-70
2023/11/18 09:17:48;;;;;;;4.77;2.17;;;;;11.30;97275.00;;;;5038963;28;20223;-71
2023/11/18 09:20:39;;;;;;;3.77;1.63;;;;;10.50;97266.00;;;;5052059;28;20212;-70
2023/11/18 09:23:29;;;;;;;4.73;2.03;;;;;10.80;97272.00;;;;5062605;28;20835;-70
2023/11/18 09:26:18;;;;;;;6.73;2.60;;;;;10.90;97271.00;;;;5066431;28;20233;-70
2023/11/18 09:29:08;;;;;;;8.53;3.63;;;;;10.80;97261.00;;;;5061224;28;20288;-70
2023/11/18 09:31:59;;;;;;;9.90;4.00;;;;;10.80;97263.00;;;;5062281;28;20731;-69
2023/11/18 09:34:48;;;;;;;4.77;2.00;;;;;10.90;97290.00;;;;5061596;28;20607;-70
2023/11/18 09:37:37;;;;;;;4.60;1.97;;;;;10.10;97298.00;;;;5062352;28;20269;-68
2023/11/18 09:40:31;;;;;;;7.27;2.97;;;;;10.70;97289.00;;;;5065694;28;20207;-70
2023/11/18 09:43:21;;;;;;;5.60;2.30;;;;;10.50;97293.00;;;;5058683;28;20204;-70
2023/11/18 09:46:13;;;;;;;7.87;3.47;;;;;10.50;97289.00;;;;5060309;28;20208;-70
2023/11/18 09:49:15;;;;;;;9.27;3.83;;;;;10.50;97298.00;;;;5061614;28;20246;-71
2023/11/18 09:52:06;;;;;;;7.33;3.13;;;;;10.80;97293.00;;;;5065621;28;20214;-69
2023/11/18 09:55:02;;;;;;;8.53;3.50;;;;;10.90;97288.00;;;;5056644;28;20227;-69
2023/11/18 09:57:58;;;;;;;6.43;2.67;;;;;10.60;97301.00;;;;5063769;28;20216;-69
2023/11/18 10:00:50;;;;;;;9.43;3.67;;;;;10.40;97313.00;;;;5063703;28;20199;-69
2023/11/18 10:03:42;;;;;;;4.33;1.93;;;;;10.60;97293.00;;;;5066509;28;20239;-70
2023/11/18 10:06:33;;;;;;;5.23;2.23;;;;;10.20;97304.00;;;;5064598;28;20204;-69
2023/11/18 10:09:28;;;;;;;5.27;2.33;;;;;10.30;97292.00;;;;5057765;28;20240;-70
2023/11/18 10:12:23;;;;;;;3.87;1.67;;;;;10.80;97295.00;;;;5061870;28;20204;-69
2023/11/18 10:15:17;;;;;;;6.17;2.53;;;;;10.80;97314.00;;;;5063341;28;20595;-70
2023/11/18 10:18:09;;;;;;;11.57;4.73;;;;;11.00;97290.00;;;;5060671;28;20223;-70
2023/11/18 10:20:59;;;;;;;12.47;5.00;;;;;11.20;97303.00;;;;5059823;28;20230;-70
2023/11/18 10:24:02;;;;;;;6.23;2.60;;;;;11.10;97270.00;;;;5064510;28;20203;-69
2023/11/18 10:26:57;;;;;;;4.13;1.70;;;;;11.10;97294.00;;;;5063154;28;20214;-70
2023/11/18 10:29:46;;;;;;;8.87;3.40;;;;;11.00;97303.00;;;;5061041;28;20215;-69
2023/11/18 10:32:36;;;;;;;5.47;2.20;;;;;11.30;97311.00;;;;5065141;28;20261;-69
2023/11/18 10:35:27;;;;;;;6.53;2.67;;;;;11.30;97294.00;;;;5062307;28;20225;-70
2023/11/18 10:38:16;;;;;;;7.33;2.93;;;;;11.20;97301.00;;;;5060181;28;20229;-69
2023/11/18 10:41:09;;;;;;;7.20;2.87;;;;;11.40;97290.00;;;;5059150;28;20208;-69
2023/11/18 10:44:07;;;;;;;10.63;4.33;;;;;11.30;97280.00;;;;5062637;28;20208;-69
2023/11/18 10:46:58;;;;;;;7.53;3.03;;;;;11.20;97288.00;;;;5064909;28;20623;-70
2023/11/18 10:49:47;;;;;;;10.23;3.90;;;;;11.30;97268.00;;;;5066069;28;20204;-69
2023/11/18 10:52:37;;;;;;;8.13;3.20;;;;;11.30;97268.00;;;;5064130;28;20204;-70
2023/11/18 10:55:37;;;;;;;6.03;2.70;;;;;11.00;97277.00;;;;5063465;28;20227;-69
2023/11/18 10:58:28;;;;;;;6.50;2.73;;;;;11.10;97272.00;;;;5063495;28;20224;-69
2023/11/18 11:01:20;;;;;;;7.90;3.07;;;;;11.40;97269.00;;;;5059992;28;20200;-69
2023/11/18 11:04:11;;;;;;;10.27;4.37;;;;;11.60;97281.00;;;;5060389;28;20228;-70
2023/11/18 11:07:01;;;;;;;9.40;3.73;;;;;11.70;97273.00;;;;5059576;28;20219;-70
2023/11/18 11:09:56;;;;;;;8.63;3.47;;;;;11.20;97285.00;;;;5058017;28;20197;-69
2023/11/18 11:12:52;;;;;;;5.10;2.10;;;;;11.40;97288.00;;;;5057354;28;20195;-69
2023/11/18 11:15:45;;;;;;;5.87;2.33;;;;;11.00;97290.00;;;;5061063;28;20610;-70
2023/11/18 11:18:38;;;;;;;5.20;2.13;;;;;11.30;97287.00;;;;5063099;28;20231;-69
2023/11/18 11:21:29;;;;;;;6.60;2.70;;;;;11.30;97282.00;;;;5060154;28;20577;-70
2023/11/18 11:24:33;;;;;;;6.50;2.63;;;;;12.20;97312.00;;;;5066672;28;20207;-69
2023/11/18 11:27:29;;;;;;;7.47;2.90;;;;;11.90;97316.00;;;;5062499;28;20196;-70
2023/11/18 11:30:25;;;;;;;9.93;3.70;;;;;11.40;97307.00;;;;5053757;28;20275;-70
2023/11/18 11:33:23;;;;;;;6.00;2.40;;;;;11.90;97303.00;;;;5060275;28;20207;-69
2023/11/18 11:36:16;;;;;;;9.63;4.07;;;;;11.90;97309.00;;;;5055975;28;20234;-70
2023/11/18 11:39:10;;;;;;;9.93;3.97;;;;;12.00;97310.00;;;;5063759;28;20216;-70
2023/11/18 11:41:59;;;;;;;10.70;4.10;;;;;12.30;97271.00;;;;5058569;28;20235;-71
2023/11/18 11:44:48;;;;;;;7.73;3.00;;;;;12.50;97303.00;;;;5061141;28;20204;-70
2023/11/18 11:47:45;;;;;;;6.00;2.40;;;;;12.60;97302.00;;;;5060724;28;20712;-70
2023/11/18 11:50:37;;;;;;;5.50;2.13;;;;;13.70;97265.00;;;;5060525;28;20230;-70
2023/11/18 11:53:31;;;;;;;7.47;2.93;;;;;14.80;97261.00;;;;5062230;28;20227;-71
2023/11/18 11:56:24;;;;;;;9.03;3.27;;;;;15.90;97295.00;;;;5063410;28;20219;-71
2023/11/18 11:59:13;;;;;;;10.60;3.83;;;;;16.00;97313.00;;;;5064377;28;20631;-69
2023/11/18 12:02:07;;;;;;;16.27;5.43;;;;;16.50;97279.00;;;;5059200;28;20204;-70
2023/11/18 12:04:58;;;;;;;13.17;4.27;;;;;16.50;97311.00;;;;5063502;28;20673;-69
2023/11/18 12:07:49;;;;;;;11.13;3.77;;;;;16.20;97308.00;;;;5059798;28;20220;-71
2023/11/18 12:10:38;;;;;;;5.37;1.93;;;;;16.70;97317.00;;;;5062555;28;20200;-71
2023/11/18 12:13:27;;;;;;;8.87;3.03;;;;;16.10;97324.00;;;;5064526;28;20200;-71
2023/11/18 12:16:20;;;;;;;12.60;4.17;;;;;15.70;97324.00;;;;5058763;28;20254;-71
2023/11/18 12:19:32;;;;;;;14.07;4.90;;;;;16.00;97315.00;;;;5060495;28;20227;-69
2023/11/18 12:22:26;;;;;;;8.90;3.03;;;;;14.30;97324.00;;;;5062192;28;20200;-70
2023/11/18 12:25:36;;;;;;;7.10;2.53;;;;;14.70;97318.00;;;;5059926;28;21285;-70
2023/11/18 12:28:27;;;;;;;8.47;2.97;;;;;14.90;97328.00;;;;5059629;28;20228;-70
2023/11/18 12:31:40;;;;;;;6.87;2.57;;;;;15.40;97301.00;;;;5060173;28;20203;-70
2023/11/18 12:34:51;;;;;;;6.47;2.33;;;;;16.40;97319.00;;;;5064716;28;20214;-70
2023/11/18 12:38:03;;;;;;;10.07;3.60;;;;;16.40;97331.00;;;;5063746;28;20219;-70
2023/11/18 12:41:06;;;;;;;11.27;3.90;;;;;18.00;97301.00;;;;5066131;28;20204;-71
2023/11/18 12:44:17;;;;;;;6.00;2.10;;;;;17.60;97296.00;;;;5064714;28;20712;-71
2023/11/18 12:47:14;;;;;;;14.83;5.20;;;;;19.40;97325.00;;;;5065329;28;20206;-71
2023/11/18 12:50:16;;;;;;;16.27;6.57;;;;;20.30;97313.00;;;;5063359;28;20204;-71
2023/11/18 12:53:06;;;;;;;22.90;8.73;;;;;19.00;97311.00;;;;5060609;28;20199;-71
2023/11/18 12:55:57;;;;;;;22.37;9.90;;;;;20.00;97354.00;;;;5065036;28;20227;-71
2023/11/18 12:58:48;;;;;;;10.43;4.03;;;;;17.50;97299.00;;;;5064802;28;20685;-69
2023/11/18 13:01:37;;;;;;;8.47;3.07;;;;;19.60;97303.00;;;;5067351;28;20204;-69
2023/11/18 13:04:27;;;;;;;12.60;5.50;;;;;19.50;97328.00;;;;5064150;28;20211;-70
2023/11/18 13:07:17;;;;;;;10.53;6.93;;;;;18.70;97316.00;;;;5062092;28;20841;-70
2023/11/18 13:10:08;;;;;;;15.53;7.73;;;;;19.00;97324.00;;;;5062429;28;20211;-70
2023/11/18 13:13:00;;;;;;;12.70;5.00;;;;;17.80;97290.00;;;;5063629;28;20220;-70
2023/11/18 13:15:50;;;;;;;14.53;4.83;;;;;16.70;97308.00;;;;5064232;28;20215;-70
2023/11/18 13:18:49;;;;;;;7.37;2.67;;;;;19.40;97322.00;;;;5056166;28;20220;-70
2023/11/18 13:21:38;;;;;;;10.43;3.87;;;;;20.20;97328.00;;;;5063895;28;20219;-71
2023/11/18 13:24:27;;;;;;;16.57;8.37;;;;;19.10;97326.00;;;;5058865;28;20206;-70
2023/11/18 13:27:17;;;;;;;15.13;13.50;;;;;19.50;97329.00;;;;5064564;28;20250;-70
2023/11/18 13:30:12;;;;;;;29.07;26.57;;;;;19.70;97388.00;;;;5063884;28;20204;-70
2023/11/18 13:33:02;;;;;;;20.83;16.07;;;;;19.40;97323.00;;;;5056358;28;20574;-70
2023/11/18 13:35:51;;;;;;;17.53;8.60;;;;;20.00;97337.00;;;;5060984;28;20204;-70
2023/11/18 13:38:41;;;;;;;11.17;6.73;;;;;18.30;97379.00;;;;5060264;28;20273;-70
2023/11/18 13:41:31;;;;;;;12.00;5.57;;;;;19.20;97311.00;;;;5062862;28;20665;-70
2023/11/18 13:44:37;;;;;;;9.70;5.10;;;;;19.30;97315.00;;;;5064713;28;20200;-70
2023/11/18 13:47:28;;;;;;;10.97;6.20;;;;;19.00;97324.00;;;;5063537;28;20709;-70
2023/11/18 13:50:19;;;;;;;10.30;7.70;;;;;20.50;97326.00;;;;5064878;28;20579;-70
2023/11/18 13:53:08;;;;;;;21.47;9.50;;;;;20.10;97329.00;;;;5061943;28;20216;-70
2023/11/18 13:55:57;;;;;;;24.33;21.53;;;;;19.60;97371.00;;;;5064651;28;20204;-70
2023/11/18 13:58:46;;;;;;;15.00;13.60;;;;;20.30;97341.00;;;;5065690;28;20220;-70
2023/11/18 14:01:37;;;;;;;14.13;10.77;;;;;20.50;97344.00;;;;5061736;28;20215;-70
2023/11/18 14:04:28;;;;;;;15.00;12.53;;;;;20.00;97333.00;;;;5064976;28;20661;-71
2023/11/18 14:07:18;;;;;;;17.30;15.47;;;;;20.00;97334.00;;;;5060798;28;20964;-70
2023/11/18 14:10:12;;;;;;;30.23;27.43;;;;;21.40;97352.00;;;;5064111;28;20202;-71
2023/11/18 14:13:05;;;;;;;48.83;45.63;;;;;21.90;97348.00;;;;5061113;28;20204;-71
2023/11/18 14:15:57;;;;;;;83.60;78.27;;;;;22.00;97348.00;;;;5061694;28;20200;-71
2023/11/18 14:18:48;;;;;;;108.53;104.10;;;;;21.90;97353.00;;;;5062139;28;20613;-71
2023/11/18 14:21:38;;;;;;;99.80;94.47;;;;;20.90;97370.00;;;;5065023;28;20711;-71